Главная страница
METAR-TAF:

METAR-TAF

Аэропорты :

Могилёв, Белоруссия

широта: 53-57-18N, долгота: 030-05-42E, высота над уровнем моря: 194 м

Текущие метеонаблюдения

Эта сводка был подготовлена 41 минут назад, в 07:00 UTC
Ветер 8 Узел от восточно-северо-восточный
Температура 6°C
Влажность 52%
Давление 1016 hPa
Видимость 10 км и более
Отдельные облака на высоте 4100 фута
Рассеянная облачность

METAR: UMOO 230700Z 07004MPS 9999 SCT041 BKN/// 06/M03 Q1016 R13/CLRD// NOSIG

Время: 10:41 (07:41 UTC)

Прогноз

Эта сводка был подготовлена 2 часа и 41 минут назад, в 05:00 UTC
Прогноз действительный с 23-го 06 UTC до 23-го 15 UTC
Ветер 12 Узел от северо-восточный
Видимость 10 км и более
Рассеянная облачность на высоте 2500 фута
временами
С 23-го 06 UTC до 23-го 15 UTC
Ветер 14 Узел от западно-северо-западный

TAF: UMOO 230500Z 2306/2315 05006MPS 9999 BKN025 TEMPO 2306/2315 30007MPS

Метеонаблюдения и прогнозы для более 4000 аэропортов (сводки METAR и TAF).

Имеющиеся станции представлены на карте желтыми и красными точками.

Чтобы увидеть название станции, наведите на нее мышь.

Затем щелкните, чтобы увидеть метеонаблюдения и метеопрогнозы.

Управление картой: чтобы увеличить масштаб, щелкните зеленые кнопки с черным крестиком; чтобы уменьшить масштаб, щелкните зеленую кнопку с тире; для просмотра соседних карт щелкайте зеленые стрелки.


METAR-TAF: